Time,TemperatureF,DewpointF,PressureIn,WindDirection,WindDirectionDegrees,WindSpeedMPH,WindSpeedGustMPH,Humidity,HourlyPrecipIn,Conditions,Clouds,dailyrainin,SolarRadiationWatts/m^2,SoftwareType,DateUTC
2013-02-21 00:01:00,19.0,16.0,-100.00,ESE,105,4.0,7.0,88,0.00,,,0.00,0.000000,,2013-02-21 07:01:00,
2013-02-21 00:11:00,19.0,16.0,-100.00,ESE,105,4.0,7.0,88,0.00,,,0.00,0.000000,,2013-02-21 07:11:00,
2013-02-21 00:32:00,19.0,17.0,-100.00,SE,125,3.0,7.0,93,0.00,,,-99.99,0.000000,,2013-02-21 07:32:00,
2013-02-21 00:42:00,19.0,17.0,-100.00,SE,125,3.0,7.0,93,0.00,,,-99.99,0.000000,,2013-02-21 07:42:00,
2013-02-21 00:52:00,19.0,17.0,-100.00,SE,125,3.0,7.0,93,0.00,,,-99.99,0.000000,,2013-02-21 07:52:00,
2013-02-21 01:01:00,19.0,17.0,-100.00,SE,125,3.0,7.0,93,0.00,,,-99.99,0.000000,,2013-02-21 08:01:00,
2013-02-21 01:11:00,19.0,17.0,-100.00,SE,125,3.0,7.0,93,0.00,,,-99.99,0.000000,,2013-02-21 08:11:00,
2013-02-21 01:42:00,19.0,17.0,-100.00,SE,144,6.0,10.0,92,0.00,,,0.00,0.000000,,2013-02-21 08:42:00,
2013-02-21 01:52:00,19.0,17.0,-100.00,SE,144,6.0,10.0,92,0.00,,,0.00,0.000000,,2013-02-21 08:52:00,
2013-02-21 02:01:00,19.0,17.0,-100.00,SE,144,6.0,10.0,92,0.00,,,0.00,0.000000,,2013-02-21 09:01:00,
2013-02-21 02:11:00,19.0,17.0,-100.00,SE,144,6.0,10.0,92,0.00,,,0.00,0.000000,,2013-02-21 09:11:00,
2013-02-21 02:42:00,19.0,16.0,-100.00,ESE,115,5.0,8.0,89,0.00,,,0.00,0.000000,,2013-02-21 09:42:00,
2013-02-21 02:52:00,19.0,16.0,-100.00,ESE,115,5.0,8.0,89,0.00,,,0.00,0.000000,,2013-02-21 09:52:00,
2013-02-21 03:01:00,19.0,16.0,-100.00,ESE,115,5.0,8.0,89,0.00,,,0.00,0.000000,,2013-02-21 10:01:00,
2013-02-21 03:11:00,19.0,16.0,-100.00,ESE,115,5.0,8.0,89,0.00,,,0.00,0.000000,,2013-02-21 10:11:00,
2013-02-21 03:31:00,18.0,15.0,-100.00,ESE,113,3.0,7.0,88,0.00,,,0.00,0.000000,,2013-02-21 10:31:00,
2013-02-21 03:41:00,18.0,15.0,-100.00,ESE,113,3.0,7.0,88,0.00,,,0.00,0.000000,,2013-02-21 10:41:00,
2013-02-21 03:51:00,18.0,15.0,-100.00,ESE,113,3.0,7.0,88,0.00,,,0.00,0.000000,,2013-02-21 10:51:00,
2013-02-21 04:01:00,18.0,15.0,-100.00,ESE,113,3.0,7.0,88,0.00,,,0.00,0.000000,,2013-02-21 11:01:00,
2013-02-21 04:11:00,18.0,15.0,-100.00,ESE,113,3.0,7.0,88,0.00,,,0.00,0.000000,,2013-02-21 11:11:00,
2013-02-21 04:41:00,18.0,15.0,-100.00,East,85,2.0,4.0,88,0.00,,,0.00,0.000000,,2013-02-21 11:41:00,
2013-02-21 04:52:00,18.0,15.0,-100.00,East,85,2.0,4.0,88,0.00,,,0.00,0.000000,,2013-02-21 11:52:00,
2013-02-21 05:01:00,18.0,15.0,-100.00,East,85,2.0,4.0,88,0.00,,,0.00,0.000000,,2013-02-21 12:01:00,
2013-02-21 05:11:00,18.0,15.0,-100.00,East,85,2.0,4.0,88,0.00,,,0.00,0.000000,,2013-02-21 12:11:00,
2013-02-21 05:32:00,18.0,16.0,-100.00,East,83,4.0,7.0,90,0.00,,,0.00,0.000000,,2013-02-21 12:32:00,
2013-02-21 05:43:00,18.0,16.0,-100.00,East,83,4.0,7.0,90,0.00,,,0.00,0.000000,,2013-02-21 12:43:00,
2013-02-21 05:53:00,18.0,16.0,-100.00,East,83,4.0,7.0,90,0.00,,,0.00,0.000000,,2013-02-21 12:53:00,
2013-02-21 06:02:00,18.0,16.0,-100.00,East,83,4.0,7.0,90,0.00,,,0.00,0.000000,,2013-02-21 13:02:00,
2013-02-21 06:12:00,18.0,16.0,-100.00,East,83,4.0,7.0,90,0.00,,,0.00,0.000000,,2013-02-21 13:12:00,
2013-02-21 07:32:00,17.0,14.0,-100.00,ENE,71,3.0,7.0,89,-99.99,,,0.00,3.000000,,2013-02-21 14:32:00,
2013-02-21 07:42:00,17.0,14.0,-100.00,ENE,71,3.0,7.0,89,-99.99,,,0.00,3.000000,,2013-02-21 14:42:00,
2013-02-21 07:52:00,17.0,14.0,-100.00,ENE,71,3.0,7.0,89,-99.99,,,0.00,3.000000,,2013-02-21 14:52:00,
2013-02-21 08:01:00,17.0,14.0,-100.00,ENE,71,3.0,7.0,89,-99.99,,,0.00,3.000000,,2013-02-21 15:01:00,
2013-02-21 08:12:00,17.0,14.0,-100.00,ENE,71,3.0,7.0,89,-99.99,,,0.00,3.000000,,2013-02-21 15:12:00,
2013-02-21 08:32:00,18.0,15.0,-100.00,ENE,73,2.0,4.0,89,0.00,,,0.00,45.000000,,2013-02-21 15:32:00,
2013-02-21 08:42:00,18.0,15.0,-100.00,ENE,73,2.0,4.0,89,0.00,,,0.00,45.000000,,2013-02-21 15:42:00,
2013-02-21 08:52:00,18.0,15.0,-100.00,ENE,73,2.0,4.0,89,0.00,,,0.00,45.000000,,2013-02-21 15:52:00,
2013-02-21 09:01:00,18.0,15.0,-100.00,ENE,73,2.0,4.0,89,0.00,,,0.00,45.000000,,2013-02-21 16:01:00,
2013-02-21 09:12:00,18.0,15.0,-100.00,ENE,73,2.0,4.0,89,0.00,,,0.00,45.000000,,2013-02-21 16:12:00,
2013-02-21 09:42:00,21.0,17.0,-100.00,ENE,65,2.0,5.0,86,0.00,,,0.00,114.000000,,2013-02-21 16:42:00,
2013-02-21 09:52:00,21.0,17.0,-100.00,ENE,65,2.0,5.0,86,0.00,,,0.00,114.000000,,2013-02-21 16:52:00,
2013-02-21 10:01:00,21.0,17.0,-100.00,ENE,65,2.0,5.0,86,0.00,,,0.00,114.000000,,2013-02-21 17:01:00,
2013-02-21 10:11:00,21.0,17.0,-100.00,ENE,65,2.0,5.0,86,0.00,,,0.00,114.000000,,2013-02-21 17:11:00,
2013-02-21 10:32:00,22.0,17.0,-100.00,East,98,3.0,6.0,80,0.00,,,0.00,187.000000,,2013-02-21 17:32:00,
2013-02-21 10:42:00,22.0,17.0,-100.00,East,98,3.0,6.0,80,0.00,,,0.00,187.000000,,2013-02-21 17:42:00,
2013-02-21 10:52:00,22.0,17.0,-100.00,East,98,3.0,6.0,80,0.00,,,0.00,187.000000,,2013-02-21 17:52:00,
2013-02-21 11:02:00,22.0,17.0,-100.00,East,98,3.0,6.0,80,0.00,,,0.00,187.000000,,2013-02-21 18:02:00,
2013-02-21 11:11:00,22.0,17.0,-100.00,East,98,3.0,6.0,80,0.00,,,0.00,187.000000,,2013-02-21 18:11:00,
2013-02-21 12:42:00,24.0,19.0,-100.00,NNE,28,6.0,9.0,81,-99.99,,,0.07,241.000000,,2013-02-21 19:42:00,
2013-02-21 12:52:00,24.0,19.0,-100.00,NNE,28,6.0,9.0,81,-99.99,,,0.07,241.000000,,2013-02-21 19:52:00,
2013-02-21 13:01:00,24.0,19.0,-100.00,NNE,28,6.0,9.0,81,-99.99,,,0.07,241.000000,,2013-02-21 20:01:00,
2013-02-21 13:11:00,24.0,19.0,-100.00,NNE,28,6.0,9.0,81,-99.99,,,0.07,241.000000,,2013-02-21 20:11:00,
2013-02-21 13:42:00,25.0,20.0,-100.00,NNE,21,7.0,10.0,80,0.00,,,0.07,265.000000,,2013-02-21 20:42:00,
2013-02-21 13:53:00,25.0,20.0,-100.00,NNE,21,7.0,10.0,80,0.00,,,0.07,265.000000,,2013-02-21 20:53:00,
2013-02-21 14:02:00,25.0,20.0,-100.00,NNE,21,7.0,10.0,80,0.00,,,0.07,265.000000,,2013-02-21 21:02:00,
2013-02-21 14:11:00,25.0,20.0,-100.00,NNE,21,7.0,10.0,80,0.00,,,0.07,265.000000,,2013-02-21 21:11:00,
2013-02-21 14:42:00,24.0,19.0,-100.00,NE,54,6.0,12.0,82,0.00,,,0.07,146.000000,,2013-02-21 21:42:00,
2013-02-21 14:52:00,24.0,19.0,-100.00,NE,54,6.0,12.0,82,0.00,,,0.07,146.000000,,2013-02-21 21:52:00,
2013-02-21 15:01:00,24.0,19.0,-100.00,NE,54,6.0,12.0,82,0.00,,,0.07,146.000000,,2013-02-21 22:01:00,
2013-02-21 15:11:00,24.0,19.0,-100.00,NE,54,6.0,12.0,82,0.00,,,0.07,146.000000,,2013-02-21 22:11:00,
2013-02-21 15:42:00,22.0,20.0,-100.00,ENE,59,6.0,10.0,90,0.00,,,0.07,60.000000,,2013-02-21 22:42:00,
2013-02-21 15:52:00,22.0,20.0,-100.00,ENE,59,6.0,10.0,90,0.00,,,0.07,60.000000,,2013-02-21 22:52:00,
2013-02-21 16:01:00,22.0,20.0,-100.00,ENE,59,6.0,10.0,90,0.00,,,0.07,60.000000,,2013-02-21 23:01:00,
2013-02-21 16:11:00,22.0,20.0,-100.00,ENE,59,6.0,10.0,90,0.00,,,0.07,60.000000,,2013-02-21 23:11:00,
2013-02-21 16:42:00,20.0,18.0,-100.00,NNE,30,8.0,12.0,91,0.00,,,0.07,18.000000,,2013-02-21 23:42:00,
2013-02-21 16:52:00,20.0,18.0,-100.00,NNE,30,8.0,12.0,91,0.00,,,0.07,18.000000,,2013-02-21 23:52:00,
2013-02-21 17:01:00,20.0,18.0,-100.00,NNE,30,8.0,12.0,91,0.00,,,0.07,18.000000,,2013-02-22 00:01:00,
2013-02-21 17:11:00,20.0,18.0,-100.00,NNE,30,8.0,12.0,91,0.00,,,0.07,18.000000,,2013-02-22 00:11:00,
2013-02-21 17:32:00,19.0,17.0,-100.00,NNE,30,6.0,11.0,93,0.00,,,0.07,5.000000,,2013-02-22 00:32:00,
2013-02-21 17:42:00,19.0,17.0,-100.00,NNE,30,6.0,11.0,93,0.00,,,0.07,5.000000,,2013-02-22 00:42:00,
2013-02-21 17:52:00,19.0,17.0,-100.00,NNE,30,6.0,11.0,93,0.00,,,0.07,5.000000,,2013-02-22 00:52:00,
2013-02-21 18:01:00,19.0,17.0,-100.00,NNE,30,6.0,11.0,93,0.00,,,0.07,5.000000,,2013-02-22 01:01:00,
2013-02-21 18:11:00,19.0,17.0,-100.00,NNE,30,6.0,11.0,93,0.00,,,0.07,5.000000,,2013-02-22 01:11:00,
2013-02-21 18:42:00,18.0,16.0,-100.00,NNE,28,6.0,10.0,92,0.00,,,0.07,1.000000,,2013-02-22 01:42:00,
2013-02-21 18:52:00,18.0,16.0,-100.00,NNE,28,6.0,10.0,92,0.00,,,0.07,1.000000,,2013-02-22 01:52:00,
2013-02-21 19:02:00,18.0,16.0,-100.00,NNE,28,6.0,10.0,92,0.00,,,0.07,1.000000,,2013-02-22 02:02:00,
2013-02-21 19:11:00,18.0,16.0,-100.00,NNE,28,6.0,10.0,92,0.00,,,0.07,1.000000,,2013-02-22 02:11:00,
2013-02-21 19:32:00,18.0,16.0,-100.00,NNE,25,6.0,9.0,90,0.00,,,0.07,0.000000,,2013-02-22 02:32:00,
2013-02-21 19:42:00,18.0,16.0,-100.00,NNE,25,6.0,9.0,90,0.00,,,0.07,0.000000,,2013-02-22 02:42:00,
2013-02-21 19:52:00,18.0,16.0,-100.00,NNE,25,6.0,9.0,90,0.00,,,0.07,0.000000,,2013-02-22 02:52:00,
2013-02-21 20:01:00,18.0,16.0,-100.00,NNE,25,6.0,9.0,90,0.00,,,0.07,0.000000,,2013-02-22 03:01:00,
2013-02-21 20:11:00,18.0,16.0,-100.00,NNE,25,6.0,9.0,90,0.00,,,0.07,0.000000,,2013-02-22 03:11:00,
2013-02-21 20:32:00,18.0,16.0,-100.00,NNE,24,5.0,7.0,90,0.00,,,0.07,0.000000,,2013-02-22 03:32:00,
2013-02-21 20:42:00,18.0,16.0,-100.00,NNE,24,5.0,7.0,90,0.00,,,0.07,0.000000,,2013-02-22 03:42:00,
2013-02-21 20:52:00,18.0,16.0,-100.00,NNE,24,5.0,7.0,90,0.00,,,0.07,0.000000,,2013-02-22 03:52:00,
2013-02-21 21:01:00,18.0,16.0,-100.00,NNE,24,5.0,7.0,90,0.00,,,0.07,0.000000,,2013-02-22 04:01:00,
2013-02-21 21:11:00,18.0,16.0,-100.00,NNE,24,5.0,7.0,90,0.00,,,0.07,0.000000,,2013-02-22 04:11:00,
2013-02-21 21:32:00,18.0,16.0,-100.00,ESE,115,2.0,5.0,91,0.00,,,0.07,0.000000,,2013-02-22 04:32:00,
2013-02-21 21:42:00,18.0,16.0,-100.00,ESE,115,2.0,5.0,91,0.00,,,0.07,0.000000,,2013-02-22 04:42:00,
2013-02-21 21:52:00,18.0,16.0,-100.00,ESE,115,2.0,5.0,91,0.00,,,0.07,0.000000,,2013-02-22 04:52:00,
2013-02-21 22:02:00,18.0,16.0,-100.00,ESE,115,2.0,5.0,91,0.00,,,0.07,0.000000,,2013-02-22 05:02:00,
2013-02-21 22:12:00,18.0,16.0,-100.00,ESE,115,2.0,5.0,91,0.00,,,0.07,0.000000,,2013-02-22 05:12:00,
2013-02-21 22:32:00,18.0,16.0,-100.00,East,88,2.0,4.0,91,0.00,,,0.07,0.000000,,2013-02-22 05:32:00,
2013-02-21 22:42:00,18.0,16.0,-100.00,East,88,2.0,4.0,91,0.00,,,0.07,0.000000,,2013-02-22 05:42:00,
2013-02-21 22:52:00,18.0,16.0,-100.00,East,88,2.0,4.0,91,0.00,,,0.07,0.000000,,2013-02-22 05:52:00,
2013-02-21 23:01:00,18.0,16.0,-100.00,East,88,2.0,4.0,91,0.00,,,0.07,0.000000,,2013-02-22 06:01:00,
2013-02-21 23:12:00,18.0,16.0,-100.00,East,88,2.0,4.0,91,0.00,,,0.07,0.000000,,2013-02-22 06:12:00,
2013-02-21 23:32:00,18.0,16.0,-100.00,East,99,2.0,4.0,90,0.00,,,0.07,0.000000,,2013-02-22 06:32:00,
2013-02-21 23:42:00,18.0,16.0,-100.00,East,99,2.0,4.0,90,0.00,,,0.07,0.000000,,2013-02-22 06:42:00,
2013-02-21 23:52:00,18.0,16.0,-100.00,East,99,2.0,4.0,90,0.00,,,0.07,0.000000,,2013-02-22 06:52:00,